Terminal Aerodrome Forecast
Issued by NWS Spokane, WA

Home | Current Version | Previous Version | Text Only | Print | Product List | Glossary On
Versions: 1 2 3 4 5 6 7 8 9 10 11 12 13 14 15
000
FTUS46 KOTX 241720
TAFLWS
TAF
KLWS 241720Z 2418/2518 04003KT P6SM BKN080 OVC150
     FM242000 VRB03KT P6SM VCSH SCT040 OVC070
     FM242200 VRB03KT P6SM -RA SCT035 OVC060
     FM250200 09004KT P6SM SCT040 BKN120=

USA.gov is the U.S. government's official web portal to all federal, state and local government web resources and services.